Time,TemperatureF,DewpointF,PressureIn,WindDirection,WindDirectionDegrees,WindSpeedMPH,WindSpeedGustMPH,Humidity,HourlyPrecipIn,Conditions,Clouds,dailyrainin,SoftwareType,DateUTC
2013-02-17 00:11:00,45.2,30.0,30.20,SSW,195,1.0,5.0,55,0.00,,,0.00,weatherlink.com 1.10,2013-02-17 06:11:00,
2013-02-17 00:26:00,45.0,30.0,30.20,South,174,2.0,6.0,56,0.00,,,0.00,weatherlink.com 1.10,2013-02-17 06:26:00,
2013-02-17 00:41:00,44.6,30.0,30.20,South,171,2.0,3.0,58,0.00,,,0.00,weatherlink.com 1.10,2013-02-17 06:41:00,
2013-02-17 00:56:00,44.1,30.0,30.19,SSE,156,3.0,4.0,59,0.00,,,0.00,weatherlink.com 1.10,2013-02-17 06:56:00,
2013-02-17 01:11:00,44.0,31.0,30.19,South,184,2.0,6.0,60,0.00,,,0.00,weatherlink.com 1.10,2013-02-17 07:11:00,
2013-02-17 01:26:00,43.6,31.0,30.18,SSE,166,3.0,5.0,61,0.00,,,0.00,weatherlink.com 1.10,2013-02-17 07:26:00,
2013-02-17 01:42:00,43.1,32.0,30.18,SSW,208,2.0,4.0,64,0.00,,,0.00,weatherlink.com 1.10,2013-02-17 07:42:00,
2013-02-17 01:57:00,42.3,31.0,30.18,South,190,2.0,4.0,65,0.00,,,0.00,weatherlink.com 1.10,2013-02-17 07:57:00,
2013-02-17 02:12:00,41.7,31.0,30.17,SSW,208,1.0,1.0,66,0.00,,,0.00,weatherlink.com 1.10,2013-02-17 08:12:00,
2013-02-17 02:27:00,41.3,31.0,30.17,SSW,212,1.0,2.0,67,0.00,,,0.00,weatherlink.com 1.10,2013-02-17 08:27:00,
2013-02-17 02:42:00,41.1,31.0,30.16,SSW,212,2.0,4.0,68,0.00,,,0.00,weatherlink.com 1.10,2013-02-17 08:42:00,
2013-02-17 02:57:00,40.8,31.0,30.15,SSW,207,1.0,3.0,68,0.00,,,0.00,weatherlink.com 1.10,2013-02-17 08:57:00,
2013-02-17 03:12:00,40.7,31.0,30.15,SSW,211,3.0,4.0,68,0.00,,,0.00,weatherlink.com 1.10,2013-02-17 09:12:00,
2013-02-17 03:27:00,40.9,31.0,30.15,SW,215,3.0,5.0,68,0.00,,,0.00,weatherlink.com 1.10,2013-02-17 09:27:00,
2013-02-17 03:42:00,40.9,31.0,30.14,SW,215,3.0,5.0,68,0.00,,,0.00,weatherlink.com 1.10,2013-02-17 09:42:00,
2013-02-17 03:57:00,40.6,31.0,30.14,SW,219,2.0,4.0,69,0.00,,,0.00,weatherlink.com 1.10,2013-02-17 09:57:00,
2013-02-17 04:12:00,41.0,32.0,30.14,SSW,212,7.0,7.0,69,0.00,,,0.00,weatherlink.com 1.10,2013-02-17 10:12:00,
2013-02-17 04:27:00,41.2,31.0,30.13,SW,217,5.0,9.0,68,0.00,,,0.00,weatherlink.com 1.10,2013-02-17 10:27:00,
2013-02-17 04:42:00,41.1,32.0,30.13,SSW,201,4.0,9.0,69,0.00,,,0.00,weatherlink.com 1.10,2013-02-17 10:42:00,
2013-02-17 04:57:00,41.0,32.0,30.14,SSW,198,7.0,11.0,70,0.00,,,0.00,weatherlink.com 1.10,2013-02-17 10:57:00,
2013-02-17 05:12:00,40.7,32.0,30.14,SSW,212,5.0,10.0,71,0.00,,,0.00,weatherlink.com 1.10,2013-02-17 11:12:00,
2013-02-17 05:27:00,40.3,32.0,30.14,SSW,210,7.0,8.0,72,0.00,,,0.00,weatherlink.com 1.10,2013-02-17 11:27:00,
2013-02-17 05:42:00,39.9,32.0,30.14,SSW,212,5.0,7.0,73,0.00,,,0.00,weatherlink.com 1.10,2013-02-17 11:42:00,
2013-02-17 05:57:00,39.5,32.0,30.14,South,191,3.0,-999.0,74,-99.99,,,0.00,weatherlink.com 1.10,2013-02-17 11:57:00,
2013-02-17 06:12:00,39.4,32.0,30.14,SW,215,4.0,8.0,74,0.00,,,0.00,weatherlink.com 1.10,2013-02-17 12:12:00,
2013-02-17 06:27:00,39.3,32.0,30.13,SW,215,8.0,9.0,74,0.00,,,0.00,weatherlink.com 1.10,2013-02-17 12:27:00,
2013-02-17 06:42:00,39.3,32.0,30.13,SW,219,8.0,10.0,74,0.00,,,0.00,weatherlink.com 1.10,2013-02-17 12:42:00,
2013-02-17 06:57:00,39.3,32.0,30.13,SW,221,7.0,11.0,74,0.00,,,0.00,weatherlink.com 1.10,2013-02-17 12:57:00,
2013-02-17 07:12:00,39.4,32.0,30.14,SSW,200,6.0,12.0,74,0.00,,,0.00,weatherlink.com 1.10,2013-02-17 13:12:00,
2013-02-17 07:27:00,39.5,32.0,30.14,SSW,212,9.0,11.0,74,0.00,,,0.00,weatherlink.com 1.10,2013-02-17 13:27:00,
2013-02-17 07:42:00,40.4,32.0,30.14,SSW,211,9.0,12.0,72,0.00,,,0.00,weatherlink.com 1.10,2013-02-17 13:42:00,
2013-02-17 07:57:00,41.4,32.0,30.14,SSW,204,7.0,11.0,70,0.00,,,0.00,weatherlink.com 1.10,2013-02-17 13:57:00,
2013-02-17 08:12:00,42.5,32.0,30.14,SSW,211,5.0,11.0,67,0.00,,,0.00,weatherlink.com 1.10,2013-02-17 14:12:00,
2013-02-17 08:27:00,44.0,32.0,30.14,SW,219,8.0,10.0,64,0.00,,,0.00,weatherlink.com 1.10,2013-02-17 14:27:00,
2013-02-17 08:42:00,45.2,33.0,30.14,SSE,167,9.0,10.0,62,0.00,,,0.00,weatherlink.com 1.10,2013-02-17 14:42:00,
2013-02-17 08:57:00,46.7,33.0,30.14,SSE,167,5.0,12.0,59,0.00,,,0.00,weatherlink.com 1.10,2013-02-17 14:57:00,
2013-02-17 09:12:00,48.5,34.0,30.14,SSW,208,8.0,11.0,57,0.00,,,0.00,weatherlink.com 1.10,2013-02-17 15:12:00,
2013-02-17 09:28:00,50.3,34.0,30.14,SSW,203,5.0,12.0,53,0.00,,,0.00,weatherlink.com 1.10,2013-02-17 15:28:00,
2013-02-17 09:43:00,52.0,34.0,30.14,SSW,200,7.0,13.0,50,0.00,,,0.00,weatherlink.com 1.10,2013-02-17 15:43:00,
2013-02-17 09:58:00,53.7,34.0,30.14,SSW,200,7.0,11.0,48,0.00,,,0.00,weatherlink.com 1.10,2013-02-17 15:58:00,
2013-02-17 10:13:00,55.2,34.0,30.13,SW,218,3.0,10.0,45,0.00,,,0.00,weatherlink.com 1.10,2013-02-17 16:13:00,
2013-02-17 10:28:00,57.1,35.0,30.13,SE,131,4.0,11.0,43,0.00,,,0.00,weatherlink.com 1.10,2013-02-17 16:28:00,
2013-02-17 10:43:00,59.8,34.0,30.12,SSW,194,9.0,14.0,38,0.00,,,0.00,weatherlink.com 1.10,2013-02-17 16:43:00,
2013-02-17 10:58:00,61.1,32.0,30.12,SSW,210,11.0,15.0,34,0.00,,,0.00,weatherlink.com 1.10,2013-02-17 16:58:00,
2013-02-17 11:13:00,61.9,33.0,30.12,SW,224,12.0,17.0,34,0.00,,,0.00,weatherlink.com 1.10,2013-02-17 17:13:00,
2013-02-17 11:28:00,62.5,31.0,30.11,SSW,210,10.0,18.0,31,0.00,,,0.00,weatherlink.com 1.10,2013-02-17 17:28:00,
2013-02-17 11:43:00,63.2,32.0,30.11,SW,236,14.0,17.0,31,0.00,,,0.00,weatherlink.com 1.10,2013-02-17 17:43:00,
2013-02-17 11:58:00,64.3,32.0,30.10,SW,232,10.0,16.0,30,0.00,,,0.00,weatherlink.com 1.10,2013-02-17 17:58:00,
2013-02-17 12:13:00,64.9,33.0,30.09,SSW,202,9.0,17.0,31,0.00,,,0.00,weatherlink.com 1.10,2013-02-17 18:13:00,
2013-02-17 12:28:00,65.9,34.0,30.07,SSE,166,7.0,17.0,31,0.00,,,0.00,weatherlink.com 1.10,2013-02-17 18:28:00,
2013-02-17 12:43:00,66.2,34.0,30.07,SW,217,14.0,18.0,30,0.00,,,0.00,weatherlink.com 1.10,2013-02-17 18:43:00,
2013-02-17 12:58:00,66.6,35.0,30.05,SE,140,7.0,18.0,31,0.00,,,0.00,weatherlink.com 1.10,2013-02-17 18:58:00,
2013-02-17 13:13:00,67.3,35.0,30.04,South,176,10.0,17.0,30,0.00,,,0.00,weatherlink.com 1.10,2013-02-17 19:13:00,
2013-02-17 13:28:00,67.6,35.0,30.03,SSE,162,9.0,16.0,30,0.00,,,0.00,weatherlink.com 1.10,2013-02-17 19:28:00,
2013-02-17 13:44:00,68.4,34.0,30.02,South,174,10.0,18.0,28,0.00,,,0.00,weatherlink.com 1.10,2013-02-17 19:44:00,
2013-02-17 13:59:00,69.1,32.0,30.01,South,188,8.0,20.0,25,0.00,,,0.00,weatherlink.com 1.10,2013-02-17 19:59:00,
2013-02-17 14:14:00,69.6,30.0,30.00,SSW,208,13.0,17.0,23,0.00,,,0.00,weatherlink.com 1.10,2013-02-17 20:14:00,
2013-02-17 14:29:00,69.8,30.0,29.99,South,178,12.0,23.0,23,0.00,,,0.00,weatherlink.com 1.10,2013-02-17 20:29:00,
2013-02-17 14:44:00,69.9,30.0,29.99,South,172,16.0,24.0,23,0.00,,,0.00,weatherlink.com 1.10,2013-02-17 20:44:00,
2013-02-17 14:59:00,69.9,32.0,29.98,SSW,200,12.0,20.0,25,0.00,,,0.00,weatherlink.com 1.10,2013-02-17 20:59:00,
2013-02-17 15:14:00,70.1,32.0,29.97,SSE,165,17.0,21.0,24,0.00,,,0.00,weatherlink.com 1.10,2013-02-17 21:14:00,
2013-02-17 15:29:00,70.5,32.0,29.97,SSE,155,20.0,-999.0,24,-99.99,,,0.00,weatherlink.com 1.10,2013-02-17 21:29:00,
2013-02-17 15:44:00,70.3,32.0,29.96,SSE,162,7.0,27.0,24,0.00,,,0.00,weatherlink.com 1.10,2013-02-17 21:44:00,
2013-02-17 15:59:00,70.4,33.0,29.96,SSE,153,7.0,20.0,25,0.00,,,0.00,weatherlink.com 1.10,2013-02-17 21:59:00,
2013-02-17 16:14:00,70.0,33.0,29.95,SSE,165,13.0,22.0,25,0.00,,,0.00,weatherlink.com 1.10,2013-02-17 22:14:00,
2013-02-17 16:29:00,69.8,32.0,29.95,SSW,203,15.0,22.0,25,0.00,,,0.00,weatherlink.com 1.10,2013-02-17 22:29:00,
2013-02-17 16:44:00,69.6,32.0,29.95,South,179,16.0,24.0,25,0.00,,,0.00,weatherlink.com 1.10,2013-02-17 22:44:00,
2013-02-17 16:59:00,69.4,33.0,29.94,SE,141,13.0,20.0,26,0.00,,,0.00,weatherlink.com 1.10,2013-02-17 22:59:00,
2013-02-17 17:14:00,68.7,32.0,29.94,ESE,111,7.0,23.0,26,0.00,,,0.00,weatherlink.com 1.10,2013-02-17 23:14:00,
2013-02-17 17:29:00,68.4,33.0,29.94,SE,141,5.0,20.0,27,0.00,,,0.00,weatherlink.com 1.10,2013-02-17 23:29:00,
2013-02-17 17:44:00,68.0,33.0,29.94,South,169,15.0,18.0,27,0.00,,,0.00,weatherlink.com 1.10,2013-02-17 23:44:00,
2013-02-17 17:59:00,66.7,33.0,29.94,SSE,165,17.0,20.0,29,0.00,,,0.00,weatherlink.com 1.10,2013-02-17 23:59:00,
2013-02-17 18:14:00,65.7,34.0,29.94,SSW,195,8.0,17.0,31,0.00,,,0.00,weatherlink.com 1.10,2013-02-18 00:14:00,
2013-02-17 18:29:00,65.0,34.0,29.93,SSE,160,14.0,19.0,32,0.00,,,0.00,weatherlink.com 1.10,2013-02-18 00:29:00,
2013-02-17 18:44:00,64.2,35.0,29.94,SSE,153,14.0,16.0,34,0.00,,,0.00,weatherlink.com 1.10,2013-02-18 00:44:00,
2013-02-17 18:59:00,63.6,35.0,29.94,SE,136,6.0,17.0,35,0.00,,,0.00,weatherlink.com 1.10,2013-02-18 00:59:00,
2013-02-17 19:14:00,63.1,36.0,29.94,SE,145,4.0,15.0,37,0.00,,,0.00,weatherlink.com 1.10,2013-02-18 01:14:00,
2013-02-17 19:29:00,62.4,36.0,29.94,SSW,208,10.0,14.0,38,0.00,,,0.00,weatherlink.com 1.10,2013-02-18 01:29:00,
2013-02-17 19:44:00,61.8,36.0,29.94,SSE,160,7.0,15.0,39,0.00,,,0.00,weatherlink.com 1.10,2013-02-18 01:44:00,
2013-02-17 19:59:00,61.4,37.0,29.94,SSW,195,8.0,13.0,40,0.00,,,0.00,weatherlink.com 1.10,2013-02-18 01:59:00,
2013-02-17 20:14:00,61.1,37.0,29.94,SE,141,8.0,14.0,41,0.00,,,0.00,weatherlink.com 1.10,2013-02-18 02:14:00,
2013-02-17 20:29:00,61.0,38.0,29.94,South,191,10.0,17.0,42,0.00,,,0.00,weatherlink.com 1.10,2013-02-18 02:29:00,
2013-02-17 20:44:00,60.8,38.0,29.94,South,173,8.0,17.0,43,0.00,,,0.00,weatherlink.com 1.10,2013-02-18 02:44:00,
2013-02-17 20:59:00,60.9,40.0,29.94,South,184,15.0,20.0,46,0.00,,,0.00,weatherlink.com 1.10,2013-02-18 02:59:00,
2013-02-17 21:14:00,60.9,41.0,29.95,SW,232,13.0,20.0,48,0.00,,,0.00,weatherlink.com 1.10,2013-02-18 03:14:00,
2013-02-17 21:29:00,60.3,41.0,29.94,SSW,207,10.0,-999.0,50,-99.99,,,0.00,weatherlink.com 1.10,2013-02-18 03:29:00,
2013-02-17 21:44:00,60.1,43.0,29.95,SSW,203,10.0,19.0,53,0.00,,,0.00,weatherlink.com 1.10,2013-02-18 03:44:00,
2013-02-17 21:59:00,59.5,43.0,29.95,SE,146,7.0,20.0,54,0.00,,,0.00,weatherlink.com 1.10,2013-02-18 03:59:00,
2013-02-17 22:14:00,58.7,43.0,29.95,SSW,209,9.0,16.0,57,0.00,,,0.00,weatherlink.com 1.10,2013-02-18 04:14:00,
2013-02-17 22:29:00,58.6,44.0,29.94,SSW,198,7.0,18.0,58,0.00,,,0.00,weatherlink.com 1.10,2013-02-18 04:29:00,
2013-02-17 22:44:00,58.2,44.0,29.94,South,181,8.0,17.0,60,0.00,,,0.00,weatherlink.com 1.10,2013-02-18 04:44:00,
2013-02-17 22:59:00,57.9,45.0,29.95,South,176,5.0,19.0,62,0.00,,,0.00,weatherlink.com 1.10,2013-02-18 04:59:00,
2013-02-17 23:14:00,57.8,45.0,29.94,SSE,148,12.0,21.0,63,0.00,,,0.00,weatherlink.com 1.10,2013-02-18 05:14:00,
2013-02-17 23:29:00,57.6,46.0,29.94,South,187,9.0,20.0,65,0.00,,,0.00,weatherlink.com 1.10,2013-02-18 05:29:00,
2013-02-17 23:44:00,57.4,46.0,29.94,SSE,160,7.0,17.0,66,0.00,,,0.00,weatherlink.com 1.10,2013-02-18 05:44:00,
2013-02-17 23:59:00,57.0,46.0,29.93,SSW,193,6.0,14.0,67,0.00,,,0.00,weatherlink.com 1.10,2013-02-18 05:59:00,